createdAt,value
2023-11-30T00:01:09.828Z,2.40
2023-11-30T00:03:36.892Z,2.38
2023-11-30T00:06:03.781Z,2.34
2023-11-30T00:08:30.652Z,2.37
2023-11-30T00:10:57.452Z,2.38
2023-11-30T00:13:24.221Z,2.39
2023-11-30T00:15:51.004Z,2.38
2023-11-30T00:18:17.853Z,2.35
2023-11-30T00:20:44.648Z,2.39
2023-11-30T00:23:11.469Z,2.44
2023-11-30T00:25:38.271Z,2.43
2023-11-30T00:28:05.258Z,2.42
2023-11-30T00:30:32.171Z,2.46
2023-11-30T00:32:59.069Z,2.43
2023-11-30T00:35:25.905Z,2.45
2023-11-30T00:37:52.730Z,2.47
2023-11-30T00:40:19.486Z,2.48
2023-11-30T00:42:47.683Z,2.51
2023-11-30T00:45:14.874Z,2.49
2023-11-30T00:47:42.860Z,2.49
2023-11-30T00:50:10.005Z,2.46
2023-11-30T00:52:36.774Z,2.47
2023-11-30T00:55:04.463Z,2.49
2023-11-30T00:57:31.333Z,2.49
2023-11-30T01:00:01.536Z,2.49
2023-11-30T01:02:28.501Z,2.46
2023-11-30T01:04:55.321Z,2.45
2023-11-30T01:07:22.058Z,2.48
2023-11-30T01:09:48.841Z,2.50
2023-11-30T01:12:15.613Z,2.49
2023-11-30T01:14:43.249Z,2.49
2023-11-30T01:17:11.049Z,2.46
2023-11-30T01:19:37.881Z,2.45
2023-11-30T01:22:07.319Z,2.50
2023-11-30T01:24:34.216Z,2.48
2023-11-30T01:27:01.047Z,2.47
2023-11-30T01:29:27.904Z,2.51
2023-11-30T01:31:54.751Z,2.48
2023-11-30T01:34:21.557Z,2.50
2023-11-30T01:36:48.384Z,2.52
2023-11-30T01:39:16.574Z,2.50
2023-11-30T01:41:43.814Z,2.50
2023-11-30T01:44:12.154Z,2.47
2023-11-30T01:46:39.093Z,2.46
2023-11-30T01:49:07.969Z,2.49
2023-11-30T01:51:36.474Z,2.48
2023-11-30T01:54:04.618Z,2.48
2023-11-30T01:56:31.729Z,2.52
2023-11-30T01:58:58.530Z,2.52
2023-11-30T02:01:27.617Z,2.52
2023-11-30T02:03:55.258Z,2.48
2023-11-30T02:06:22.121Z,2.48
2023-11-30T02:08:49.054Z,2.46
2023-11-30T02:11:15.868Z,2.50
2023-11-30T02:13:42.770Z,2.47
2023-11-30T02:16:10.149Z,2.47
2023-11-30T02:18:36.966Z,2.47
2023-11-30T02:21:03.963Z,2.48
2023-11-30T02:23:30.796Z,2.49
2023-11-30T02:25:57.640Z,2.47
2023-11-30T02:28:25.850Z,2.49
2023-11-30T02:30:52.702Z,2.50
2023-11-30T02:33:19.690Z,2.52
2023-11-30T02:35:46.613Z,2.51
2023-11-30T02:38:13.460Z,2.52
2023-11-30T02:40:40.196Z,2.50
2023-11-30T02:43:06.993Z,2.51
2023-11-30T02:45:33.844Z,2.50
2023-11-30T02:48:01.886Z,2.53
2023-11-30T02:50:28.746Z,2.52
2023-11-30T02:52:55.600Z,2.54
2023-11-30T02:55:22.992Z,2.53
2023-11-30T02:57:50.514Z,2.52
2023-11-30T03:00:17.722Z,2.53
2023-11-30T03:02:44.572Z,2.48
2023-11-30T03:05:11.495Z,2.47
2023-11-30T03:07:38.251Z,2.50
2023-11-30T03:10:05.316Z,2.46
2023-11-30T03:12:32.095Z,2.49
2023-11-30T03:14:58.946Z,2.50
2023-11-30T03:17:25.726Z,2.52
2023-11-30T03:19:52.592Z,2.50
2023-11-30T03:22:19.342Z,2.49
2023-11-30T03:24:46.097Z,2.47
2023-11-30T03:27:13.343Z,2.51
2023-11-30T03:29:41.640Z,2.50
2023-11-30T03:32:08.631Z,2.53
2023-11-30T03:34:35.965Z,2.53
2023-11-30T03:37:04.475Z,2.52
2023-11-30T03:39:31.426Z,2.51
2023-11-30T03:41:58.325Z,2.51
2023-11-30T03:44:25.155Z,2.51
2023-11-30T03:46:51.925Z,2.55
2023-11-30T03:49:18.729Z,2.53
2023-11-30T03:51:45.496Z,2.53
2023-11-30T03:54:12.326Z,2.55
2023-11-30T03:56:39.048Z,2.53
2023-11-30T03:59:05.753Z,2.54
2023-11-30T04:01:32.609Z,2.53
2023-11-30T04:03:59.435Z,2.52
2023-11-30T04:06:26.236Z,2.53
2023-11-30T04:08:53.757Z,2.51
2023-11-30T04:11:20.795Z,2.52
2023-11-30T04:13:48.189Z,2.53
2023-11-30T04:16:16.468Z,2.54
2023-11-30T04:18:43.826Z,2.50
2023-11-30T04:21:10.985Z,2.51
2023-11-30T04:23:37.792Z,2.52
2023-11-30T04:26:04.625Z,2.53
2023-11-30T04:28:31.364Z,2.53
2023-11-30T04:30:58.315Z,2.55
2023-11-30T04:33:25.201Z,2.52
2023-11-30T04:35:52.212Z,2.50
2023-11-30T04:38:19.762Z,2.52
2023-11-30T04:40:46.561Z,2.51
2023-11-30T04:43:13.517Z,2.50
2023-11-30T04:45:40.406Z,2.47
2023-11-30T04:48:07.415Z,2.50
2023-11-30T04:50:34.183Z,2.46
2023-11-30T04:53:02.079Z,2.45
2023-11-30T04:55:28.872Z,2.42
2023-11-30T04:57:55.660Z,2.35
2023-11-30T05:00:22.976Z,2.32
2023-11-30T05:02:54.241Z,2.32
2023-11-30T05:05:21.218Z,2.32
2023-11-30T05:07:48.356Z,2.34
2023-11-30T05:10:15.306Z,2.31
2023-11-30T05:12:42.066Z,2.28
2023-11-30T05:15:09.098Z,2.29
2023-11-30T05:17:35.862Z,2.23
2023-11-30T05:20:04.754Z,2.23
2023-11-30T05:22:32.397Z,2.19
2023-11-30T05:24:59.125Z,2.15
2023-11-30T05:27:25.961Z,2.09
2023-11-30T05:29:52.863Z,2.08
2023-11-30T05:32:19.789Z,2.05
2023-11-30T05:34:46.627Z,2.05
2023-11-30T05:37:13.348Z,2.07
2023-11-30T05:39:40.393Z,2.01
2023-11-30T05:42:07.962Z,2.01
2023-11-30T05:44:34.813Z,1.95
2023-11-30T05:47:01.606Z,1.96
2023-11-30T05:49:28.414Z,1.88
2023-11-30T05:51:55.170Z,1.86
2023-11-30T05:54:22.739Z,1.96
2023-11-30T05:56:49.859Z,1.85
2023-11-30T05:59:16.621Z,1.79
2023-11-30T06:01:43.859Z,1.74
2023-11-30T06:04:11.020Z,1.75
2023-11-30T06:06:37.914Z,1.74
2023-11-30T06:09:05.384Z,1.69
2023-11-30T06:11:32.209Z,1.70
2023-11-30T06:14:01.576Z,1.69
2023-11-30T06:16:28.658Z,1.66
2023-11-30T06:18:55.382Z,1.66
2023-11-30T06:21:22.181Z,1.68
2023-11-30T06:23:48.923Z,1.64
2023-11-30T06:26:15.674Z,1.59
2023-11-30T06:28:42.473Z,1.63
2023-11-30T06:31:09.432Z,1.55
2023-11-30T06:33:36.292Z,1.60
2023-11-30T06:36:05.270Z,1.57
2023-11-30T06:38:32.332Z,1.55
2023-11-30T06:40:59.368Z,1.52
2023-11-30T06:43:27.216Z,1.55
2023-11-30T06:45:54.025Z,1.54
2023-11-30T06:48:22.456Z,1.53
2023-11-30T06:50:49.276Z,1.52
2023-11-30T06:53:16.086Z,1.47
2023-11-30T06:55:43.032Z,1.47
2023-11-30T06:58:09.795Z,1.48
2023-11-30T07:00:36.649Z,1.52
2023-11-30T07:03:03.554Z,1.50
2023-11-30T07:05:30.356Z,1.55
2023-11-30T07:07:57.143Z,1.55
2023-11-30T07:10:24.407Z,1.54
2023-11-30T07:12:51.223Z,1.56
2023-11-30T07:15:18.074Z,1.56
2023-11-30T07:17:44.877Z,1.54
2023-11-30T07:20:12.665Z,1.56
2023-11-30T07:22:39.389Z,1.60
2023-11-30T07:25:06.524Z,1.62
2023-11-30T07:27:33.453Z,1.63
2023-11-30T07:30:00.362Z,1.64
2023-11-30T07:32:27.330Z,1.63
2023-11-30T07:34:54.232Z,1.68
2023-11-30T07:37:22.530Z,1.66
2023-11-30T07:39:49.420Z,1.65
2023-11-30T07:42:28.923Z,1.64
2023-11-30T07:45:00.380Z,1.56
2023-11-30T07:47:27.468Z,1.61
2023-11-30T07:49:54.289Z,1.64
2023-11-30T07:52:21.462Z,1.63
2023-11-30T07:54:48.941Z,1.69
2023-11-30T07:57:17.382Z,1.69
2023-11-30T07:59:45.243Z,1.68
2023-11-30T08:02:12.018Z,1.67
2023-11-30T08:04:38.948Z,1.74
2023-11-30T08:07:06.088Z,1.69
2023-11-30T08:09:34.853Z,1.69
2023-11-30T08:12:01.814Z,1.68
2023-11-30T08:14:29.252Z,1.74
2023-11-30T08:16:56.277Z,1.74
2023-11-30T08:19:23.072Z,1.77
2023-11-30T08:21:50.215Z,1.73
2023-11-30T08:24:17.097Z,1.76
2023-11-30T08:26:43.926Z,1.75
2023-11-30T08:29:10.724Z,1.74
2023-11-30T08:31:37.833Z,1.80
2023-11-30T08:34:04.825Z,1.83
2023-11-30T08:36:31.710Z,1.78
2023-11-30T08:38:58.528Z,1.77
2023-11-30T08:41:25.295Z,1.76
2023-11-30T08:43:52.057Z,1.85
2023-11-30T08:46:19.269Z,1.87
2023-11-30T08:48:46.507Z,1.92
2023-11-30T08:51:14.076Z,1.92
2023-11-30T08:53:41.387Z,1.92
2023-11-30T08:56:08.775Z,1.97
2023-11-30T08:58:35.645Z,1.92
2023-11-30T09:01:02.596Z,2.03
2023-11-30T09:03:29.317Z,2.06
2023-11-30T09:05:56.125Z,2.12
2023-11-30T09:08:22.989Z,2.11
2023-11-30T09:10:49.847Z,2.16
2023-11-30T09:13:16.625Z,2.19
2023-11-30T09:15:43.522Z,2.26
2023-11-30T09:18:12.181Z,2.27
2023-11-30T09:20:38.989Z,2.30
2023-11-30T09:23:06.454Z,2.35
2023-11-30T09:25:34.057Z,2.38
2023-11-30T09:28:01.054Z,2.37
2023-11-30T09:30:27.854Z,2.39
2023-11-30T09:32:55.073Z,2.38
2023-11-30T09:35:21.936Z,2.38
2023-11-30T09:37:49.427Z,2.41
2023-11-30T09:40:16.429Z,2.46
2023-11-30T09:42:43.226Z,2.48
2023-11-30T09:45:10.228Z,2.49
2023-11-30T09:47:37.100Z,2.55
2023-11-30T09:50:04.446Z,2.53
2023-11-30T09:52:32.638Z,2.58
2023-11-30T09:55:00.028Z,2.61
2023-11-30T09:57:26.900Z,2.62
2023-11-30T09:59:54.046Z,2.64
2023-11-30T10:02:20.928Z,2.65
2023-11-30T10:04:47.781Z,2.63
2023-11-30T10:07:14.636Z,2.66
2023-11-30T10:09:41.545Z,2.68
2023-11-30T10:12:08.537Z,2.72
2023-11-30T10:14:35.371Z,2.74
2023-11-30T10:17:02.275Z,2.73
2023-11-30T10:19:29.708Z,2.76
2023-11-30T10:21:57.290Z,2.76
2023-11-30T10:24:28.678Z,2.74
2023-11-30T10:26:59.290Z,2.76
2023-11-30T10:29:28.530Z,2.79
2023-11-30T10:31:57.007Z,2.81
2023-11-30T10:34:34.414Z,2.83
2023-11-30T10:37:04.500Z,2.81
2023-11-30T10:39:37.455Z,2.86
2023-11-30T10:42:09.824Z,2.83
2023-11-30T10:44:37.102Z,2.88
2023-11-30T10:47:04.047Z,2.91
2023-11-30T10:49:30.976Z,2.95
2023-11-30T10:52:03.745Z,2.96
2023-11-30T10:54:53.077Z,2.99
2023-11-30T10:57:20.459Z,2.99
2023-11-30T10:59:49.104Z,3.05
2023-11-30T11:02:16.459Z,3.06
2023-11-30T11:04:43.757Z,3.10
2023-11-30T11:07:13.393Z,3.12
2023-11-30T11:10:03.560Z,3.12
2023-11-30T11:12:38.672Z,3.15
2023-11-30T11:15:15.990Z,3.16
2023-11-30T11:17:48.711Z,3.17
2023-11-30T11:20:28.928Z,3.18
2023-11-30T11:22:56.943Z,3.14
2023-11-30T11:25:26.166Z,3.14
2023-11-30T11:27:53.029Z,3.16
2023-11-30T11:30:21.938Z,3.18
2023-11-30T11:32:49.745Z,3.18
2023-11-30T11:35:16.528Z,3.19
2023-11-30T11:37:43.240Z,3.18
2023-11-30T11:40:10.380Z,3.20
2023-11-30T11:42:37.249Z,3.18
2023-11-30T11:45:05.455Z,3.20
2023-11-30T11:47:33.176Z,3.28
2023-11-30T11:50:00.618Z,3.23
2023-11-30T11:52:28.777Z,3.23
2023-11-30T11:55:05.911Z,3.24
2023-11-30T11:57:39.893Z,3.25
2023-11-30T12:00:18.831Z,3.28
2023-11-30T12:02:46.245Z,3.32
2023-11-30T12:05:15.037Z,3.34
2023-11-30T12:07:59.526Z,3.34
2023-11-30T12:10:33.892Z,3.33
2023-11-30T12:13:02.370Z,3.36
2023-11-30T12:15:29.755Z,3.35
2023-11-30T12:17:56.755Z,3.35
2023-11-30T12:20:23.796Z,3.38
2023-11-30T12:22:50.561Z,3.40
2023-11-30T12:25:17.825Z,3.41
2023-11-30T12:27:44.951Z,3.42
2023-11-30T12:30:12.385Z,3.44
2023-11-30T12:32:39.665Z,3.46
2023-11-30T12:35:07.970Z,3.43
2023-11-30T12:37:36.652Z,3.49
2023-11-30T12:40:04.867Z,3.51
2023-11-30T12:42:32.159Z,3.52
2023-11-30T12:44:59.270Z,3.50
2023-11-30T12:47:26.884Z,3.54
2023-11-30T12:49:53.850Z,3.54
2023-11-30T12:52:21.981Z,3.54
2023-11-30T12:54:52.967Z,3.54
2023-11-30T12:57:20.891Z,3.56
2023-11-30T12:59:47.856Z,3.54
2023-11-30T13:02:14.788Z,3.56
2023-11-30T13:04:42.012Z,3.56
2023-11-30T13:07:08.770Z,3.57
2023-11-30T13:09:36.439Z,3.54
2023-11-30T13:12:04.506Z,3.57
2023-11-30T13:14:32.023Z,3.58
2023-11-30T13:16:58.981Z,3.57
2023-11-30T13:19:26.198Z,3.58
2023-11-30T13:21:53.473Z,3.58
2023-11-30T13:24:21.024Z,3.57
2023-11-30T13:26:49.182Z,3.56
2023-11-30T13:29:16.141Z,3.57
2023-11-30T13:31:43.022Z,3.55
2023-11-30T13:34:09.773Z,3.57
2023-11-30T13:36:36.516Z,3.57
2023-11-30T13:39:05.990Z,3.57
2023-11-30T13:41:33.001Z,3.55
2023-11-30T13:43:59.855Z,3.53
2023-11-30T13:46:26.868Z,3.56
2023-11-30T13:48:53.840Z,3.58
2023-11-30T13:51:21.091Z,3.58
2023-11-30T13:53:48.140Z,3.56
2023-11-30T13:56:15.889Z,3.60
2023-11-30T13:58:42.660Z,3.60
2023-11-30T14:01:11.033Z,3.63
2023-11-30T14:03:38.791Z,3.63
2023-11-30T14:06:06.029Z,3.62
2023-11-30T14:08:33.123Z,3.59
2023-11-30T14:11:00.039Z,3.59
2023-11-30T14:13:26.839Z,3.60
2023-11-30T14:15:53.793Z,3.62
2023-11-30T14:18:20.731Z,3.65
2023-11-30T14:20:49.255Z,3.61
2023-11-30T14:23:16.110Z,3.65
2023-11-30T14:25:42.872Z,3.66
2023-11-30T14:28:12.753Z,3.67
2023-11-30T14:30:40.598Z,3.66
2023-11-30T14:33:10.670Z,3.66
2023-11-30T14:35:39.333Z,3.66
2023-11-30T14:38:06.363Z,3.68
2023-11-30T14:40:33.176Z,3.68
2023-11-30T14:43:00.233Z,3.65
2023-11-30T14:45:27.956Z,3.68
2023-11-30T14:47:54.910Z,3.68
2023-11-30T14:50:21.779Z,3.66
2023-11-30T14:52:48.556Z,3.68
2023-11-30T14:55:15.395Z,3.67
2023-11-30T14:57:43.041Z,3.68
2023-11-30T15:00:13.107Z,3.66
2023-11-30T15:02:40.615Z,3.68
2023-11-30T15:05:11.414Z,3.67
2023-11-30T15:07:38.857Z,3.66
2023-11-30T15:10:08.376Z,3.64
2023-11-30T15:12:36.819Z,3.64
2023-11-30T15:15:13.859Z,3.65
2023-11-30T15:17:43.120Z,3.63
2023-11-30T15:20:11.550Z,3.61
2023-11-30T15:22:38.970Z,3.61
2023-11-30T15:25:08.070Z,3.61
2023-11-30T15:27:35.670Z,3.61
2023-11-30T15:30:03.638Z,3.61
2023-11-30T15:32:31.338Z,3.61
2023-11-30T15:34:58.117Z,3.59
2023-11-30T15:37:24.856Z,3.56
2023-11-30T15:39:51.818Z,3.57
2023-11-30T15:42:18.666Z,3.57
2023-11-30T15:44:45.382Z,3.56
2023-11-30T15:47:13.034Z,3.54
2023-11-30T15:49:40.949Z,3.55
2023-11-30T15:52:07.705Z,3.52
2023-11-30T15:54:34.489Z,3.52
2023-11-30T15:57:01.300Z,3.50
2023-11-30T15:59:28.243Z,3.49
2023-11-30T16:01:55.164Z,3.46
2023-11-30T16:04:22.059Z,3.46
2023-11-30T16:06:49.539Z,3.45
2023-11-30T16:09:16.322Z,3.46
2023-11-30T16:11:43.084Z,3.44
2023-11-30T16:14:09.873Z,3.41
2023-11-30T16:16:40.802Z,3.42
2023-11-30T16:19:07.829Z,3.41
2023-11-30T16:21:35.103Z,3.42
2023-11-30T16:24:01.838Z,3.40
2023-11-30T16:26:29.153Z,3.59
2023-11-30T16:28:57.574Z,3.62
2023-11-30T16:31:27.130Z,3.56
2023-11-30T16:33:54.566Z,3.51
2023-11-30T16:36:21.652Z,3.44
2023-11-30T16:38:52.022Z,3.44
2023-11-30T16:41:19.107Z,3.41
2023-11-30T16:43:46.221Z,3.38
2023-11-30T16:46:13.697Z,3.38
2023-11-30T16:48:45.029Z,3.36
2023-11-30T16:51:12.665Z,3.30
2023-11-30T16:53:39.595Z,3.29
2023-11-30T16:56:06.650Z,3.29
2023-11-30T16:58:33.519Z,3.30
2023-11-30T17:01:00.534Z,3.29
2023-11-30T17:03:27.576Z,3.26
2023-11-30T17:05:54.609Z,3.24
2023-11-30T17:08:21.488Z,3.23
2023-11-30T17:10:48.507Z,3.21
2023-11-30T17:13:15.392Z,3.22
2023-11-30T17:15:42.134Z,3.21
2023-11-30T17:18:09.188Z,3.24
2023-11-30T17:20:36.112Z,3.21
2023-11-30T17:23:04.096Z,3.21
2023-11-30T17:25:30.952Z,3.20
2023-11-30T17:27:59.740Z,3.22
2023-11-30T17:30:26.945Z,3.20
2023-11-30T17:32:54.137Z,3.20
2023-11-30T17:35:21.406Z,3.17
2023-11-30T17:37:48.401Z,3.18
2023-11-30T17:40:15.184Z,3.16
2023-11-30T17:42:42.043Z,3.19
2023-11-30T17:45:10.640Z,3.18
2023-11-30T17:47:37.683Z,3.19
2023-11-30T17:50:05.011Z,3.19
2023-11-30T17:52:31.869Z,3.20
2023-11-30T17:54:58.874Z,3.23
2023-11-30T17:57:25.814Z,3.21
2023-11-30T17:59:54.237Z,3.21
2023-11-30T18:02:25.328Z,3.19
2023-11-30T18:04:53.541Z,3.19
2023-11-30T18:07:20.311Z,3.20
2023-11-30T18:09:47.137Z,3.19
2023-11-30T18:12:15.151Z,3.17
2023-11-30T18:14:42.986Z,3.17
2023-11-30T18:17:12.920Z,3.19
2023-11-30T18:19:41.089Z,3.20
2023-11-30T18:22:07.911Z,3.17
2023-11-30T18:24:34.983Z,3.19
2023-11-30T18:27:03.378Z,3.17
2023-11-30T18:29:31.520Z,3.13
2023-11-30T18:31:58.816Z,3.14
2023-11-30T18:34:25.618Z,3.14
2023-11-30T18:36:53.711Z,3.14
2023-11-30T18:39:20.607Z,3.09
2023-11-30T18:41:47.518Z,3.06
2023-11-30T18:44:14.737Z,3.06
2023-11-30T18:46:41.891Z,3.11
2023-11-30T18:49:08.971Z,3.11
2023-11-30T18:51:36.898Z,3.08
2023-11-30T18:54:03.935Z,3.03
2023-11-30T18:56:30.883Z,3.02
2023-11-30T18:58:58.621Z,3.02
2023-11-30T19:01:26.119Z,3.02
2023-11-30T19:03:53.404Z,3.04
2023-11-30T19:06:21.429Z,3.03
2023-11-30T19:08:49.616Z,2.99
2023-11-30T19:11:17.279Z,3.04
2023-11-30T19:13:44.652Z,3.05
2023-11-30T19:16:23.961Z,3.01
2023-11-30T19:18:51.584Z,3.03
2023-11-30T19:21:18.966Z,3.01
2023-11-30T19:23:48.894Z,3.02
2023-11-30T19:26:15.805Z,3.03
2023-11-30T19:28:42.734Z,3.03
2023-11-30T19:31:09.545Z,3.00
2023-11-30T19:33:36.419Z,3.02
2023-11-30T19:36:03.435Z,3.00
2023-11-30T19:38:30.340Z,2.99
2023-11-30T19:40:57.506Z,3.00
2023-11-30T19:43:25.395Z,2.99
2023-11-30T19:45:54.938Z,2.97
2023-11-30T19:48:22.249Z,3.02
2023-11-30T19:50:49.239Z,2.99
2023-11-30T19:53:16.451Z,2.99
2023-11-30T19:55:45.864Z,2.94
2023-11-30T19:58:13.315Z,2.94
2023-11-30T20:00:41.972Z,2.95
2023-11-30T20:03:09.550Z,2.94
2023-11-30T20:05:38.437Z,2.94
2023-11-30T20:08:05.668Z,2.95
2023-11-30T20:10:32.523Z,2.96
2023-11-30T20:12:59.540Z,2.94
2023-11-30T20:15:28.841Z,2.90
2023-11-30T20:17:55.744Z,2.91
2023-11-30T20:20:22.597Z,2.91
2023-11-30T20:22:49.573Z,2.93
2023-11-30T20:25:17.895Z,2.95
2023-11-30T20:27:44.870Z,2.96
2023-11-30T20:30:12.397Z,2.93
2023-11-30T20:32:39.324Z,2.96
2023-11-30T20:35:06.376Z,2.93
2023-11-30T20:37:33.200Z,2.92
2023-11-30T20:40:00.132Z,2.93
2023-11-30T20:42:27.164Z,2.95
2023-11-30T20:44:53.995Z,2.90
2023-11-30T20:47:21.542Z,2.93
2023-11-30T20:49:48.534Z,2.96
2023-11-30T20:52:15.852Z,2.94
2023-11-30T20:54:43.028Z,2.96
2023-11-30T20:57:10.003Z,2.96
2023-11-30T20:59:38.129Z,2.95
2023-11-30T21:02:06.265Z,2.94
2023-11-30T21:04:33.130Z,2.91
2023-11-30T21:07:00.164Z,2.88
2023-11-30T21:09:27.477Z,2.86
2023-11-30T21:11:55.641Z,2.87
2023-11-30T21:14:23.457Z,2.81
2023-11-30T21:16:50.899Z,2.76
2023-11-30T21:19:17.816Z,2.79
2023-11-30T21:21:46.443Z,2.77
2023-11-30T21:24:14.148Z,2.78
2023-11-30T21:26:40.868Z,2.76
2023-11-30T21:29:07.699Z,2.77
2023-11-30T21:31:34.485Z,2.79
2023-11-30T21:34:01.405Z,2.82
2023-11-30T21:36:28.236Z,2.81
2023-11-30T21:38:55.048Z,2.79
2023-11-30T21:41:21.869Z,2.81
2023-11-30T21:43:48.748Z,2.79
2023-11-30T21:46:15.575Z,2.78
2023-11-30T21:48:42.610Z,2.76
2023-11-30T21:51:09.525Z,2.70
2023-11-30T21:53:36.379Z,2.68
2023-11-30T21:56:03.272Z,2.66
2023-11-30T21:58:30.152Z,2.66
2023-11-30T22:00:57.642Z,2.61
2023-11-30T22:03:24.665Z,2.60
2023-11-30T22:05:51.947Z,2.57
2023-11-30T22:08:18.736Z,2.59
2023-11-30T22:10:45.830Z,2.61
2023-11-30T22:13:13.723Z,2.63
2023-11-30T22:15:40.487Z,2.61
2023-11-30T22:18:07.336Z,2.64
2023-11-30T22:20:35.324Z,2.64
2023-11-30T22:23:02.241Z,2.61
2023-11-30T22:25:29.145Z,2.65
2023-11-30T22:27:56.083Z,2.64
2023-11-30T22:30:22.840Z,2.59
2023-11-30T22:32:49.576Z,2.60
2023-11-30T22:35:16.386Z,2.59
2023-11-30T22:37:43.266Z,2.60
2023-11-30T22:40:10.476Z,2.61
2023-11-30T22:42:37.233Z,2.63
2023-11-30T22:45:05.488Z,2.56
2023-11-30T22:47:32.793Z,2.54
2023-11-30T22:49:59.517Z,2.56
2023-11-30T22:52:26.976Z,2.54
2023-11-30T22:54:54.030Z,2.56
2023-11-30T22:57:20.859Z,2.56
2023-11-30T22:59:47.659Z,2.57
2023-11-30T23:02:14.684Z,2.55
2023-11-30T23:04:41.766Z,2.47
2023-11-30T23:07:08.766Z,2.47
2023-11-30T23:09:35.661Z,2.50
2023-11-30T23:12:02.440Z,2.49
2023-11-30T23:14:29.288Z,2.45
2023-11-30T23:16:56.082Z,2.43
2023-11-30T23:19:22.916Z,2.45
2023-11-30T23:21:49.789Z,2.44
2023-11-30T23:24:25.533Z,2.47
2023-11-30T23:26:55.718Z,2.51
2023-11-30T23:29:23.110Z,2.44
2023-11-30T23:31:50.015Z,2.46
2023-11-30T23:34:16.854Z,2.46
2023-11-30T23:36:43.653Z,2.48
2023-11-30T23:39:10.370Z,2.50
2023-11-30T23:41:37.141Z,2.46
2023-11-30T23:44:04.004Z,2.51
2023-11-30T23:46:31.829Z,2.48
2023-11-30T23:48:59.048Z,2.47
2023-11-30T23:51:25.952Z,2.50
2023-11-30T23:53:52.744Z,2.49
2023-11-30T23:56:19.512Z,2.50
2023-11-30T23:58:46.225Z,2.48
